Regional Weather Synopsis
Issued by NWS Denver/Boulder, CO

Home | Current Version | Previous Version | Text Only | Print | Product List | Glossary On
Versions: 1 2 3 4 5 6 7 8 9 10 11 12 13 14 15 16 17 18 19 20 21 22 23 24 25 26 27 28 29 30 31 32 33 34 35 36 37 38 39 40 41 42 43 44 45 46 47 48 49 50
000
NZUS99 KBOU 240248
SYNBOU

Hot-Air Balloon Forecast for Colorado
National Weather Service Denver/Boulder, Colorado
2045 MDT Tuesday, April 23, 2024


* * * * * Northeast Colorado * * * * *

METAR KFNL 240156Z 20005KT 10SM OVC070 12/04 A3011 RMK AO2 SLP174
       T01220044
METAR KFNL 240056Z 28004KT 10SM FEW060 BKN080 BKN120 12/06 A3010 RMK AO2
       RAE2357B17E35 SLP173 T01220061
METAR KFNL 232356Z 19009KT 10SM -RA FEW036 SCT055 OVC100 13/04 A3010 RMK
       AO2 RAB18 SLP170 6//// T01280044 10172 20128 56008 PNO $

METAR KGXY 240156Z 00000KT 10SM -RA OVC070 13/06 A3010 RMK AO2 RAE01B42
       SLP189 P0000 T01280061
METAR KGXY 240056Z 13006KT 10SM -RA OVC075 14/03 A3009 RMK AO2
       RAB2359E28B49 SLP185 P0000 T01440028
METAR KGXY 232356Z 17007KT 10SM FEW070 OVC090 15/01 A3009 RMK AO2 SLP185
       T01500006 10189 20133 56007

METAR KLMO 240235Z AUTO 00000KT 10SM SCT044 OVC060 12/06 A3015 RMK AO2
       P0001 T01240061
METAR KLMO 240215Z AUTO 20004KT 10SM RA BKN044 BKN060 OVC070 13/05 A3014
       RMK AO2 P0001 T01310045
METAR KLMO 240155Z AUTO 24006KT 10SM BKN060 OVC090 15/02 A3014 RMK AO2
       T01450023

METAR KBDU 240235Z AUTO 29004KT 10SM BKN065 OVC080 10/07 A3013 RMK AO2
       P0005
METAR KBDU 240215Z AUTO 30004KT 5SM -RA SCT019 BKN048 OVC055 10/07 A3013
       RMK AO2 P0005
METAR KBDU 240155Z AUTO 27005KT 10SM RA SCT046 OVC055 12/05 A3014 RMK
        AO2 P0001

METAR KEIK 240235Z AUTO 31009KT 8SM SCT050 SCT065 BKN085 OVC130 10/07
       A3012 RMK AO2 RAE0235 P0000 T01020068
METAR KEIK 240215Z AUTO 33007KT 6SM -RA SCT040 OVC060 12/05 A3011 RMK
       AO2 P0000 T01170048
METAR KEIK 240155Z AUTO 29005KT 7SM -RA FEW030 OVC065 13/05 A3011 RMK
        AO2 PRESRR P0000 T01250047

KBJC 232337Z 2400/2424 VRB06KT P6SM VCSH BKN080
     FM240400 01006KT P6SM BKN080
     FM240700 33005KT P6SM SCT100
     FM241600 13005KT P6SM SCT100
     FM242100 06006KT P6SM VCSH BKN100
METAR KBJC 240159Z 32009KT 30SM BKN060 BKN100 13/01 A3013
METAR KBJC 240045Z 30003KT 10SM BKN070 OVC100 13/00 A3012
SPECI KBJC 240021Z 35007KT 40SM BKN070 OVC120 14/00 A3011

KDEN 232337Z 2400/2506 05009KT P6SM VCSH SCT080 BKN120
     FM240200 09012KT P6SM BKN080
     FM240400 13010KT P6SM BKN080
     FM240700 19012KT P6SM SCT100
     FM242000 15010KT P6SM BKN100
     FM250500 18010KT P6SM SCT100
METAR KDEN 240153Z 10008KT 10SM BKN080 BKN120 BKN220 13/01 A3010 RMK
        AO2 SLP158 T01330011
METAR KDEN 240053Z 06012KT 10SM SCT075 BKN100 BKN140 BKN220 14/01 A3008
       RMK AO2 SLP153 T01440011
METAR KDEN 232353Z 05014KT 10SM SCT075 BKN130 BKN220 17/02 A3008 RMK AO2
       SLP147 T01670017 10172 20111 55012


KBKF 240100Z 2401/2507 06015KT 9999 BKN070 BKN110 BKN220
     QNH3003INS
     BECMG 2403/2404 06010G20KT 8000 -RA BKN040 OVC070
     QNH3001INS
     BECMG 2407/2408 VRB06KT 9999 NSW FEW110 QNH2997INS
     TX23/2423Z TN06/2412Z
SPECI KBKF 240211Z 11010KT 10SM FEW041 FEW050 OVC070 14/01 A3009 RMK
       AO2A SLP151
METAR KBKF 240158Z 10008KT 10SM -RA FEW041 BKN055 OVC065 14/01 A3009
        RMK AO2A RAB58 SLP151 P0000 T01370010
METAR KBKF 240058Z 13011KT 10SM BKN070 BKN110 BKN220 15/00 A3007 RMK
        AO2A SLP148 T01540000

KAPA 240241Z 2403/2424 30007KT P6SM VCSH SCT060 BKN080
     FM240500 VRB06KT P6SM BKN080
     FM240700 17012KT P6SM SCT100
     FM242000 15010KT P6SM BKN100
METAR KAPA 240153Z 28007KT 10SM -RA SCT055 BKN070 BKN100 12/04 A3010
        RMK AO2 SLP174 P0000 T01170039
METAR KAPA 240053Z 33016G22KT 10SM -RA SCT055 BKN070 BKN100 BKN130
        13/02 A3009 RMK AO2 RAB21E34B50 SLP169 P0000 T01280022
METAR KAPA 232353Z 33019G24KT 10SM BKN090 BKN130 BKN220 15/01 A3006 RMK
       AO2 PK WND 35026/2254 SLP157 T01500011 10189 20094 55004

METAR KMNH 240235Z AUTO 16007KT 10SM SCT060 08/M02 A3019 RMK AO2
METAR KMNH 240215Z AUTO 16009KT 10SM SCT080 SCT120 08/M02 A3019 RMK
       AO2
METAR KMNH 240155Z AUTO 15006KT 10SM SCT065 BKN080 09/M01 A3018 RMK
        AO2

METAR KFMM 240235Z AUTO 10008KT 10SM FEW031 BKN048 OVC070 12/04 A3013
       RMK AO2
METAR KFMM 240215Z AUTO 08008KT 6SM -RA HZ FEW028 SCT034 BKN045 13/05
       A3012 RMK AO2
METAR KFMM 240155Z AUTO 08007KT 10SM FEW036 SCT055 BKN070 14/04 A3010
        RMK AO2

METAR KSTK 240235Z AUTO 11005KT 10SM SCT080 BKN095 OVC110 13/00 A3009
       RMK AO2
METAR KSTK 240215Z AUTO 00000KT 10SM SCT075 SCT120 14/00 A3011 RMK
       AO2
METAR KSTK 240155Z AUTO 07005KT 10SM SCT110 14/M01 A3008 RMK AO2

METAR KAKO 240153Z AUTO 10006KT 10SM BKN080 OVC100 13/M01 A3011 RMK
        AO2 SLP177 T01331011
METAR KAKO 240053Z AUTO 13006KT 10SM OVC100 15/M03 A3011 RMK AO2 SLP178
       T01501033
METAR KAKO 232353Z AUTO 11005KT 10SM CLR 17/M03 A3009 RMK AO2 SLP170
       T01671033 10178 20139 58003

METAR KLIC 240155Z AUTO 10011KT 10SM CLR 13/M03 A3011 RMK AO2 SLP165
       T01281033
METAR KLIC 240055Z AUTO 12015G22KT 10SM CLR 17/M03 A3010 RMK AO2 SLP157
       T01671028
METAR KLIC 232355Z AUTO 13013KT 10SM SCT110 17/M02 A3009 RMK AO2 SLP153
       T01671022 10183 20133 55004

METAR KHEQ 240235Z AUTO 09008KT 10SM BKN080 15/M02 A3013 RMK AO2
METAR KHEQ 240215Z AUTO 09007KT 10SM BKN080 15/M03 A3013 RMK AO2
METAR KHEQ 240155Z AUTO 00000KT 10SM OVC080 15/M02 A3012 RMK AO2

METAR K2V6 240239Z AUTO 14006KT 10SM SCT080 OVC110 12/M07 A3013 RMK
       AO2
METAR K2V6 240219Z AUTO 09006KT 10SM SCT080 BKN095 OVC120 13/M08 A3012
       RMK AO2
METAR K2V6 240159Z AUTO 10007KT 10SM SCT070 OVC090 13/M09 A3011 RMK
        AO2

METAR K2V5 240235Z AUTO 06009KT 10SM BKN080 BKN090 OVC110 15/M04 A3012
       RMK AO2
METAR K2V5 240215Z AUTO 06006KT 10SM BKN090 OVC110 15/M04 A3013 RMK
       AO2
METAR K2V5 240155Z AUTO 06006KT 10SM BKN110 15/M04 A3012 RMK AO2

METAR KITR 240153Z AUTO 09006KT 10SM CLR 14/M03 A3013 RMK AO2 SLP179
        T01391028
METAR KITR 240053Z AUTO 08007KT 10SM SCT120 17/M04 A3011 RMK AO2 SLP173
        T01671039
METAR KITR 232353Z AUTO 05008KT 10SM CLR 18/M05 A3010 RMK AO2 SLP170
       T01781050 10200 20167 55003

Sunrise/Sunset for 04/23/2024
Fort Collins - 06:08:45 MDT / 19:48:10 MDT
Denver       - 06:09:42 MDT / 19:46:22 MDT
Sterling     - 06:01:10 MDT / 19:40:55 MDT

Denver/Boulder (KFTG) 04/24/24 02:39 UTC
Radar VAD winds      Height      Dir/Spd(kt)
                  30000 FT MSL...288/050
                  28000 FT MSL...218/034
                  26200 FT MSL...275/029
                  26000 FT MSL...274/030
                  25000 FT MSL...282/030
                  24000 FT MSL...279/032
                  22900 FT MSL...276/038
                  22000 FT MSL...271/041
                  20000 FT MSL...265/043
                  19400 FT MSL...264/042
                  19000 FT MSL...265/040
                  18000 FT MSL...265/039
                  17000 FT MSL...265/033
                  16700 FT MSL...267/035
                  16000 FT MSL...267/028
                  15000 FT MSL...260/024
                  14500 FT MSL...257/023
                  14000 FT MSL...232/020
                  13000 FT MSL...202/022
                  12600 FT MSL...194/025
                  12000 FT MSL...185/027
                  11200 FT MSL...182/026
                  11000 FT MSL...181/027
                  10000 FT MSL...173/028
                  10000 FT MSL...171/028
                   9000 FT MSL...159/029
                   8900 FT MSL...156/030
                   8100 FT MSL...148/030
                   8000 FT MSL...147/030
                   7300 FT MSL...136/030
                   7000 FT MSL...136/030
                   6700 FT MSL...136/027
                   6200 FT MSL...130/030
                   6000 FT MSL...127/028
                   6000 FT MSL...129/028

Denver/Boulder Aviation Discussion
Issued at 0151 UTC Wednesday, April 24, 2024

.AVIATION /00Z TAFS through 00Z Wednesday/...
Issued at 538 PM MDT Tue Apr 23 2024
VFR through the TAF period with generally SCT-BKN mid-level
clouds. Main challenge will be winds in the near-term period, with
a Denver Cyclone located between APA and BKF. This has slowly
drifted north-northeast over the past couple of hours, with gusty
north/northwest winds on the backside of the circulation (APA),
with some sort of east or northeast at DEN. A few weak showers on
radar have also been noted, which have spit out just enough
outflow to occasionally shift winds to the north at DEN/BJC.
Expect these weak showers and the cyclone itself to weaken over
the next few hours with drainage flow returning after sunset
tonight. Weak flow is expected tomorrow, maintaining some sort of
southeast component through most of the day. A couple of high-
based showers are possible again tomorrow, but coverage at this
point looks sparse enough that VCSH wasn`t included.


* * * * * Southeast Colorado * * * * *

METAR K4BM 240235Z AUTO 12011G16KT 10SM SCT075 SCT090 02/M01 A3034 RMK
       AO2
METAR K4BM 240215Z AUTO 09006KT 10SM SCT070 SCT090 02/M01 A3033 RMK
       AO2
METAR K4BM 240155Z AUTO 05010G17KT 10SM SCT080 SCT100 02/M01 A3032
        RMK AO2

METAR KAFF 240155Z AUTO 16012KT 10SM SCT110 13/M03 A3014 RMK AO2 SLP167
        T01301033
METAR KAFF 240055Z AUTO 14016KT 10SM CLR 14/M03 A3010 RMK AO2 SLP153
        T01441030
METAR KAFF 232355Z 15016KT 10SM SCT100 SCT220 16/M03 A3009 RMK AO2A
        SLP143 T01641027 10172 20138 55003

KCOS 232336Z 2400/2424 16012KT P6SM VCSH FEW110 SCT160
     FM240300 14009KT P6SM BKN090
     FM240800 15009KT P6SM SCT200
     FM241300 15007KT P6SM FEW250
     FM241900 16015G25KT P6SM BKN250
METAR KCOS 240154Z 15008KT 10SM FEW080 BKN130 BKN200 14/M02 A3015 RMK
        AO2 SLP173 VIRGA ALQDS T01391017
METAR KCOS 240054Z 15017KT 10SM FEW090 BKN130 BKN200 16/M02 A3012 RMK
        AO2 SLP162 VIRGA ALQDS T01561022
METAR KCOS 232354Z 15014KT 10SM FEW090 BKN130 BKN200 16/M02 A3012 RMK
        AO2 SLP159 VIRGA E-S-W T01611017 10183 20133 55003

METAR KABH 240155Z AUTO 16010KT 10SM BKN120 OVC140 14/M02 A3013 RMK
        AO2 SLP180 T01421023
METAR KABH 240055Z AUTO 18012KT 10SM BKN120 16/M03 A3013 RMK AO2 SLP174
        T01551029
METAR KABH 232355Z AUTO 15015KT 10SM FEW100 SCT120 SCT140 SCT170 BKN200
        16/M03 A3011 RMK AO2 SLP167 T01631027 10182 20124 55007

METAR KFLY 240235Z AUTO 11013KT 10SM SCT060 SCT075 OVC100 11/M03 A3017
       RMK AO2 T01091027
METAR KFLY 240215Z AUTO 19009KT 10SM SCT060 BKN120 11/M03 A3020 RMK AO2
       T01101029
METAR KFLY 240155Z AUTO 18010G14KT 10SM SCT095 SCT110 11/M03 A3018
        RMK AO2 T01111030

KFCS 232100Z 2321/2503 15012G18KT 9999 VCSH SCT120 510009
     QNH3007INS
     BECMG 2401/2402 14012KT 9999 NSW SCT120 QNH3008INS
     BECMG 2406/2407 14009KT 9999 FEW120 QNH3012INS
     BECMG 2417/2418 18010G20KT 9999 SKC QNH3011INS
     BECMG 2423/2424 33010KT 9999 FEW120 QNH2990INS TX19/2421Z
     TN05/2411Z
METAR KFCS 240155Z AUTO 15004KT 10SM BKN100 OVC120 13/M03 A3010 RMK
        AO2 SLP179 T01311028 $
METAR KFCS 240055Z AUTO 15013KT 10SM BKN120 BKN160 OVC190 16/M03 A3008
        RMK AO2 SLP167 T01551029 $
METAR KFCS 232355Z AUTO 15012KT 10SM OVC120 17/M02 A3007 RMK AO2 SLP158
        T01731024 10208 20141 55003 $

KPUB 232336Z 2400/2424 12012KT P6SM SKC
     FM240300 09013KT P6SM BKN110
     FM240600 08007KT P6SM SCT150
     FM241000 10007KT P6SM FEW200
     FM242000 15012G22KT P6SM SCT250
METAR KPUB 240153Z 10008KT 10SM CLR 17/M02 A3006 RMK AO2 SLP143
       T01721017
METAR KPUB 240053Z 10015KT 10SM CLR 19/M02 A3004 RMK AO2 SLP133
       T01941017
METAR KPUB 232353Z 10012KT 10SM CLR 19/M01 A3005 RMK AO2 SLP139
       T01941011 10211 20156 55005

METAR KVTP 240235Z AUTO 09008KT 10SM SCT090 OVC110 03/M02 A3040 RMK
       AO2
METAR KVTP 240215Z AUTO 10008KT 10SM SCT080 OVC110 04/M01 A3038 RMK
       AO2
METAR KVTP 240155Z AUTO 09008G16KT 10SM SCT085 OVC100 04/M01 A3038 RMK
       AO2

METAR KTAD 240154Z AUTO 14013KT 10SM CLR 16/M01 A3009 RMK AO2 SLP132
        T01561006
METAR KTAD 240054Z AUTO 12016G25KT 10SM FEW100 18/M01 A3006 RMK AO2
        SLP126 T01781011
METAR KTAD 232354Z AUTO 12013G19KT 10SM SCT085 BKN120 19/01 A3007 RMK
        AO2 SLP134 T01890006 10211 20161 55005

METAR KLHX 240153Z AUTO 10010KT 10SM CLR 17/M01 A3006 RMK AO2 SLP146
        T01671006
METAR KLHX 240053Z AUTO 10011KT 10SM SCT120 19/M01 A3005 RMK AO2 SLP139
       T01941006
METAR KLHX 232353Z AUTO 11016KT 10SM CLR 21/M01 A3003 RMK AO2 SLP135
       T02061006 10222 20178 56009

METAR KLAA 240153Z AUTO 11010KT 10SM SCT100 BKN120 19/M02 A3007 RMK
        AO2 SLP151 T01891022
METAR KLAA 240053Z AUTO 11012KT 10SM FEW120 21/M02 A3004 RMK AO2 SLP142
        T02061017
METAR KLAA 232353Z AUTO 12012G22KT 10SM CLR 22/M01 A3004 RMK AO2 SLP145
        T02171011 10239 20194 55002


Sunrise/Sunset for 04/23/2024
Burlington - 05:59:38 MDT / 19:34:55 MDT
Pueblo     - 06:10:42 MDT / 19:42:38 MDT
Lamar      - 06:02:58 MDT / 19:34:20 MDT

Pueblo (KPUX) 04/24/24 02:40 UTC
Radar VAD winds      Height      Dir/Spd(kt)
                  26100 FT MSL...286/034
                  25000 FT MSL...267/039
                  24000 FT MSL...268/038
                  23000 FT MSL...265/040
                  22800 FT MSL...263/040
                  22000 FT MSL...261/042
                  21000 FT MSL...258/043
                  20000 FT MSL...257/043
                  19300 FT MSL...255/041
                  19000 FT MSL...255/041
                  18000 FT MSL...255/038
                  17000 FT MSL...255/033
                  16500 FT MSL...254/031
                  16000 FT MSL...251/031
                  15000 FT MSL...247/026
                  14300 FT MSL...244/024
                  14000 FT MSL...241/024
                  13000 FT MSL...231/024
                  12400 FT MSL...227/022
                  12000 FT MSL...223/021
                  11000 FT MSL...207/023
                  10800 FT MSL...190/008
                  10000 FT MSL...176/029
                   9700 FT MSL...165/027
                   9000 FT MSL...148/033
                   8600 FT MSL...149/039
                   8000 FT MSL...139/037
                   7800 FT MSL...138/037
                   7000 FT MSL...137/038
                   7000 FT MSL...135/037
                   6300 FT MSL...136/037
                   6000 FT MSL...133/038
                   5900 FT MSL...126/033
                   5700 FT MSL...129/031

Pueblo Aviation Discussion
Issued at 2023 UTC Tuesday, April 23, 2024

.AVIATION /00Z TAFS THROUGH 00Z WEDNESDAY/...
Issued at 218 PM MDT Tue Apr 23 2024
VFR conditions anticipated across the forecast area over the next 24
hrs, including the three main TAF sites of KCOS, KPUB and KALS.
Scattered to broken mid and high level cloudiness over the higher
terrain and Palmer Divide expected through mid-evening, then
clearing skies overnight. Surface winds across the eastern plains
will be predominantly out of the E-SE through the forecast period,
though stronger sfc flow at 10-15G25kt will be possible through 02z,
affecting KCOS and KPUB. Isolated shower activity forecast over the
higher terrain this afternoon, which could encroach on KCOS, so made
a mention of VCSH there through 03z.
SW winds gusting up to 25 kts expected across the San Luis Valley
until around 02z, affecting KALS.


* * * * * Northwest Colorado * * * * *

METAR KCAG 240153Z AUTO 08008KT 10SM FEW065 BKN095 OVC110 12/07 A3001
        RMK AO2 SLP130 T01220067
METAR KCAG 240053Z AUTO 17006KT 10SM FEW110 13/07 A3000 RMK AO2 RAB2357E34
        SLP127 P0001 T01330067
METAR KCAG 232353Z AUTO 13007KT 10SM OVC075 13/07 A3002 RMK AO2
       RAB2254E40 TSB10E38 SLP140 P0010 60010 T01280072 10217 20128
       53006

METAR KHDN 240156Z AUTO 02005KT 10SM FEW120 11/04 A3006 RMK AO2 SLP138
       T01060044
METAR KHDN 240056Z AUTO 06005KT 10SM FEW085 12/06 A3004 RMK AO2 RAE45
       SLP136 P0000 T01220056
METAR KHDN 232356Z AUTO 31006KT 10SM -RA SCT049 OVC065 14/03 A3007 RMK
       AO2 RAE04B41 SLP141 P0001 60002 T01390033 10194 20133
       53013

METAR KSBS 240235Z AUTO 05003KT 10SM SCT110 09/05 A3006 RMK AO1
       T00850047
METAR KSBS 240215Z AUTO 00000KT 10SM CLR 09/04 A3006 RMK AO1
       T00910043
METAR KSBS 240155Z AUTO 19006KT 10SM CLR 10/03 A3004 RMK AO1 T00970032

METAR KC07 240235Z AUTO 08006KT 3/4SM BR OVC001 01/01 A3024 RMK AO2
METAR KC07 240215Z AUTO 09005KT 10SM SCT001 SCT090 01/01 A3023 RMK
       AO2
METAR KC07 240155Z AUTO 08005KT 10SM SCT090 02/02 A3023 RMK AO2


METAR KEEO 240153Z AUTO 03012KT 10SM CLR 14/02 A2997 RMK AO2 SLP094
        T01440017
METAR KEEO 240053Z AUTO 09004KT 10SM FEW120 18/00 A2996 RMK AO2 SLP085
        T01830000
METAR KEEO 232353Z AUTO 14007KT 10SM FEW120 19/00 A2997 RMK AO2 SLP086
       60000 T01890000 10217 20178 58005

METAR K20V 240235Z AUTO 09007KT 10SM SCT110 10/02 A3012 RMK AO2
METAR K20V 240215Z AUTO 10007KT 10SM SCT110 10/01 A3012 RMK AO2
METAR K20V 240155Z AUTO 10003KT 10SM CLR 12/01 A3011 RMK AO2

METAR KGNB 240235Z AUTO 14009KT 10SM BKN060 BKN070 OVC090 07/M10 A3018
       RMK AO2 T00721105
METAR KGNB 240215Z AUTO 15011KT 10SM SCT042 SCT050 OVC085 07/M10 A3018
       RMK AO2 T00691100
METAR KGNB 240155Z AUTO 14012KT 10SM SCT044 OVC055 08/M10 A3017 RMK
        AO2 T00751101

METAR K0CO 240235Z AUTO 18006KT OVC001 M02/M03 A3034 RMK AO2 PWINO
METAR K0CO 240215Z AUTO 18008G21KT BKN001 OVC055 M02/M03 A3036 RMK AO2
       PWINO
METAR K0CO 240155Z AUTO 15005KT BKN060 BKN070 BKN080 M02/M03 A3033
        RMK AO2 PWINO

METAR KC99 240237Z AUTO 14004KT 10SM OVC010 M01/M01 A3029 RMK AO2 LTG
       DSNT NE
METAR KC99 240218Z AUTO 16005KT 7SM OVC006 M01/M01 A3029 RMK AO2
METAR KC99 240157Z AUTO 15004KT 7SM SCT002 OVC006 M01/M01 A3029 RMK
       AO2

KGJT 232342Z 2400/2424 27010G21KT P6SM FEW140 FEW150
     FM240200 24009KT P6SM FEW140 SCT250
     FM240400 11008KT P6SM FEW140 SCT250
     FM241700 27008KT P6SM FEW130 FEW250
     FM242000 27012G20KT P6SM FEW110 FEW250
METAR KGJT 240153Z 27012KT 10SM CLR 25/M08 A2985 RMK AO2 SLP045 T02501078
METAR KGJT 240053Z 27013KT 10SM CLR 27/M08 A2985 RMK AO2 SLP044 T02721083
METAR KGJT 232353Z 24018G26KT 10SM CLR 29/M07 A2985 RMK AO2 PK WND
       24026/2351 SLP045 T02891067 10300 20250 56012

KRIL 232320Z 2400/2424 26014G23KT P6SM FEW130 SCT250
     FM240200 25009KT P6SM FEW130 SCT250
     FM240600 09005KT P6SM FEW130 SCT200
     FM241600 27007KT P6SM FEW110 FEW250
     FM241900 26015G25KT P6SM FEW090 FEW250
METAR KRIL 240153Z AUTO 23008KT 10SM CLR 22/M06 A2990 RMK AO2 SLP068
       T02221061
METAR KRIL 240053Z AUTO 26014G19KT 10SM CLR 24/M05 A2989 RMK AO2 SLP067
       T02441050
METAR KRIL 232353Z AUTO 25016G21KT 10SM CLR 26/M04 A2990 RMK AO2 PK WND
       25026/2321 SLP067 T02561039 10267 20217 56007

METAR K5SM 240235Z AUTO 22010G16KT 10SM BKN075 04/M05 A3027 RMK AO2
METAR K5SM 240216Z AUTO 23010G15KT 220V280 10SM SCT075 05/M06 A3026 RMK
       AO2
METAR K5SM 240155Z AUTO 23011G20KT 10SM SCT075 05/M06 A3026 RMK AO2

KEGE 232341Z 2400/2424 24012G22KT P6SM FEW090 SCT200
     FM240200 26007KT P6SM FEW090 SCT130
     FM240500 16005KT P6SM SCT100 BKN140
     FM241000 00000KT P6SM FEW100 SCT250
     FM241600 24005KT P6SM FEW090 FEW250
     FM241900 25011G22KT P6SM FEW080 FEW250
METAR KEGE 240156Z AUTO 09007KT 10SM SCT120 18/M01 A3000 RMK AO2 SLP072
       T01831011
METAR KEGE 240056Z AUTO 18018G22KT 10SM FEW110 21/M03 A2997 RMK AO2
       WSHFT 2351 SLP064 T02111033
SPECI KEGE 240016Z 22009KT 10SM SCT110 22/M03 A2998 RMK AO2 WSHFT
       2351

KASE 232339Z 2400/2424 31009KT P6SM FEW080 SCT150
     FM240300 20009KT P6SM FEW080 SCT130
     FM240800 17009KT P6SM FEW100 FEW250
     FM241600 26008KT P6SM FEW080 FEW250
     FM242200 24010G20KT P6SM FEW100 FEW250
SPECI KASE 240221Z AUTO 22006G23KT 10SM FEW090 SCT110 13/M02 A3011 RMK
       AO2 PK WND 22030/0207 WSHFT 0201 T01331022
METAR KASE 240153Z AUTO 14006KT 10SM FEW050 SCT065 13/M02 A3008 RMK
        AO2 RAE0058 SLP096 P0000 T01331022
METAR KASE 240053Z 03007G32KT 340V050 10SM -RA FEW060 SCT070 BKN100
        16/M04 A3007 RMK AO2 PK WND 29034/0034 RAB39 SLP090 P0000
        T01561044

METAR KCCU 240235Z AUTO 19012G21KT 160V220 10SM SCT033 SCT050 BKN070
       05/M05 A3033 RMK AO2
METAR KCCU 240215Z AUTO 16013G24KT 10SM SCT047 SCT060 BKN120 05/M03
       A3033 RMK AO2
METAR KCCU 240155Z AUTO 20009G24KT 10SM SCT029 BKN065 OVC095 07/M05
        A3033 RMK AO2

METAR KLXV 240153Z AUTO 02005KT 10SM FEW090 BKN110 08/M05 A3019 RMK
        AO2 SLP111 T00781050
METAR KLXV 240053Z AUTO 34011G30KT 10SM BKN100 OVC110 09/M04 A3018 RMK
       AO2 PK WND 32030/0048 SLP111 T00891044
METAR KLXV 232353Z AUTO 02009KT 10SM BKN100 12/M05 A3018 RMK AO2 SLP102
       60000 T01171050 10133 20044 55005

Sunrise/Sunset for 04/23/2024
Rangely           - 06:24:22 MDT / 20:02:13 MDT
Grand Junction    - 06:25:06 MDT / 19:59:41 MDT
Steamboat Springs - 06:15:53 MDT / 19:55:03 MDT

Grand Junction (KGJX) 04/24/24 02:36 UTC
Radar VAD winds      Height      Dir/Spd(kt)
                  22000 FT MSL...238/023
                  21200 FT MSL...240/028
                  20000 FT MSL...226/021
                  19000 FT MSL...234/023
                  19000 FT MSL...230/020
                  18000 FT MSL...237/022
                  17200 FT MSL...244/026
                  17000 FT MSL...245/033
                  16000 FT MSL...237/023
                  15600 FT MSL...254/020
                  15000 FT MSL...251/030
                  14000 FT MSL...244/022
                  13300 FT MSL...193/029
                  13000 FT MSL...241/015
                  12000 FT MSL...227/019
                  11800 FT MSL...219/018
                  11000 FT MSL...234/014
                  11000 FT MSL...237/017
                  10400 FT MSL...240/017
                  10300 FT MSL...253/014
                  10100 FT MSL...243/016

Grand Junction Aviation Discussion
Issued at 2333 UTC Tuesday, April 23, 2024

.AVIATION /00Z TAFS THROUGH 00Z WEDNESDAY/...
Issued at 519 PM MDT Tue Apr 23 2024
Expect VFR conditions across the region through the TAF period.
Currently widely scattered showers with isolated thunderstorms
are across areas north of the I-70 corridor and more isolated
showers through the central and southern Colorado mountains.
These showers may produce outflow gusts in excess of 35 kts.
Look for the showers to diminish through the evening, ending by
06Z. Winds will generally be light and terrain driven overnight
into the morning, becoming gusty west to southwesterly after
18Z. Isolated showers are possible again over the Uinta
Mountains and Park Range after 18Z.


* * * * * Southwest Colorado * * * * *


KMTJ 232320Z 2400/2424 24016G26KT P6SM FEW130 FEW250
     FM240200 22012KT P6SM FEW130 FEW250
     FM240400 16009KT P6SM FEW130 FEW250
     FM241600 27008KT P6SM SKC
     FM242100 24014G24KT P6SM FEW130 FEW250
METAR KMTJ 240153Z AUTO 24008KT 10SM CLR 22/M07 A2996 RMK AO2 SLP076
       T02221067
METAR KMTJ 240053Z AUTO 24013G18KT 10SM CLR 24/M07 A2995 RMK AO2 SLP078
       T02391072
METAR KMTJ 232353Z AUTO 22012G24KT 10SM CLR 25/M08 A2995 RMK AO2 PK WND
       22028/2259 SLP074 T02501078 10267 20222 55004

METAR KGUC 240156Z AUTO 26006KT 10SM CLR 17/M07 A3006 RMK AO2 WSHFT 0047
       SLP119 T01721072
SPECI KGUC 240112Z AUTO 25015KT 10SM BKN110 19/M07 A3005 RMK AO2 WSHFT
       0047
METAR KGUC 240056Z AUTO 27014G19KT 10SM SCT110 20/M07 A3004 RMK AO2 PK
       WND 23026/0042 WSHFT 0033 SLP111 T02001072

METAR K7BM 240235Z AUTO 06003KT 10SM BKN100 OVC120 10/M03 A3022 RMK AO2
       LTG DSNT NE
METAR K7BM 240215Z AUTO 24003G17KT 10SM SCT070 OVC090 11/M06 A3021 RMK
       AO2
METAR K7BM 240155Z AUTO 12003KT 10SM OVC090 11/M05 A3019 RMK AO2

METAR KAEJ 240235Z AUTO 19007G21KT 10SM OVC110 12/M01 A3014 RMK AO2
       T01161012
METAR KAEJ 240215Z AUTO 07005G14KT 10SM OVC110 13/M02 A3012 RMK AO2
       T01261020
METAR KAEJ 240155Z AUTO 16019G26KT 10SM BKN110 13/M02 A3009 RMK AO2
        T01271016

METAR KANK 240235Z AUTO 12019G22KT 10SM OVC110 12/M00 A3014 RMK AO2
       T01171003
METAR KANK 240215Z AUTO 12019KT 10SM FEW070 BKN110 BKN170 12/M00 A3013
       RMK AO2 T01201002
METAR KANK 240155Z AUTO 13015G25KT 9SM FEW075 BKN100 12/M00 A3013 RMK
        AO2 T01231003

METAR KMYP 240244Z AUTO 10003KT 10SM SCT048 BKN050 OVC065 01/M03 A3046
       RMK AO2
METAR KMYP 240224Z AUTO 13007KT 10SM SCT048 BKN055 OVC065 03/M04 A3044
       RMK AO2
METAR KMYP 240204Z AUTO 26010G21KT 10SM SCT037 OVC055 04/M06 A3044 RMK
       AO2


KTEX 232320Z 2400/2424 24010G20KT P6SM FEW090 FEW200
     FM240300 18006KT P6SM FEW090 FEW250
     FM240700 15007KT P6SM SKC
     FM241600 23009KT P6SM SKC
     FM242000 22013G22KT P6SM SKC
METAR KTEX 240235Z AUTO 28006KT 10SM CLR 13/M13 A3020 RMK AO2
METAR KTEX 240215Z AUTO 24005G16KT 10SM CLR 14/M13 A3019 RMK AO2
METAR KTEX 240155Z AUTO 23005G14KT 10SM CLR 15/M13 A3019 RMK AO2

METAR K04V 240235Z AUTO 34003KT 10SM CLR 13/M05 A3013 RMK AO2
METAR K04V 240215Z AUTO 01009KT 10SM SCT120 15/M05 A3012 RMK AO2
METAR K04V 240155Z AUTO 35005KT 10SM BKN110 16/M05 A3011 RMK AO2

METAR KCEZ 240153Z AUTO 20006KT 10SM CLR 20/M04 A2999 RMK AO2 SLP096
       T02001044
METAR KCEZ 240053Z AUTO 22010G22KT 10SM CLR 24/M06 A2999 RMK AO2 SLP101
        T02391056
METAR KCEZ 232353Z AUTO 26008G20KT 10SM CLR 24/M06 A2999 RMK AO2 SLP099
       T02441056 10256 20217 56012

KDRO 232320Z 2400/2424 24009KT P6SM SKC
     FM240200 26008KT P6SM SKC
     FM241200 VRB03KT P6SM SKC
     FM241700 22008KT P6SM SKC
     FM242100 23015G24KT P6SM SKC
METAR KDRO 240153Z AUTO 26007KT 10SM FEW120 19/M06 A3003 RMK AO2 SLP112
        T01941061
METAR KDRO 240053Z AUTO 26010KT 10SM FEW120 21/M06 A3004 RMK AO2 SLP125
       T02111061
METAR KDRO 232353Z AUTO 22004G23KT 10SM FEW120 23/M06 A3004 RMK AO2 PK
       WND 25026/2259 SLP117 T02281061 10250 20206 56003

METAR KPSO 240235Z AUTO 00000KT 10SM SCT120 14/M05 A3012 RMK AO2
       T01411054
METAR KPSO 240215Z AUTO 28004KT 10SM CLR 16/M06 A3012 RMK AO2
       T01571065
METAR KPSO 240155Z AUTO 27005KT 10SM SCT110 17/M06 A3011 RMK AO2 T01671061

METAR KCPW 240235Z AUTO 23009G19KT 10SM CLR 04/M08 A3040 RMK AO2
METAR KCPW 240215Z AUTO 25010G15KT 10SM CLR 03/M08 A3039 RMK AO2
METAR KCPW 240155Z AUTO 26011G19KT 10SM CLR 04/M08 A3039 RMK AO2

KALS 232336Z 2400/2424 21015KT P6SM SKC
     FM240200 19010KT P6SM SCT100 SCT200
     FM240500 15007KT P6SM SKC
     FM241800 23015G25KT P6SM SCT250
METAR KALS 240152Z AUTO 23010KT 10SM CLR 17/M08 A3006 RMK AO2 SLP117
       T01671083
METAR KALS 240052Z AUTO 24012G22KT 10SM CLR 21/M09 A3005 RMK AO2 SLP118
        T02061089
METAR KALS 232352Z AUTO 22015G27KT 10SM FEW120 21/M08 A3005 RMK AO2
        PK WND 23027/2344 SLP121 T02061078 10239 20194 56005

Sunrise/Sunset for 04/23/2024
Vail    - 06:15:26 MDT / 19:51:48 MDT
Durango - 06:25:12 MDT / 19:54:07 MDT
Alamosa - 06:16:56 MDT / 19:46:25 MDT

Grand Junction (KGJX) 04/24/24 02:36 UTC
Radar VAD winds      Height      Dir/Spd(kt)
                  22000 FT MSL...238/023
                  21200 FT MSL...240/028
                  20000 FT MSL...226/021
                  19000 FT MSL...234/023
                  19000 FT MSL...230/020
                  18000 FT MSL...237/022
                  17200 FT MSL...244/026
                  17000 FT MSL...245/033
                  16000 FT MSL...237/023
                  15600 FT MSL...254/020
                  15000 FT MSL...251/030
                  14000 FT MSL...244/022
                  13300 FT MSL...193/029
                  13000 FT MSL...241/015
                  12000 FT MSL...227/019
                  11800 FT MSL...219/018
                  11000 FT MSL...234/014
                  11000 FT MSL...237/017
                  10400 FT MSL...240/017
                  10300 FT MSL...253/014
                  10100 FT MSL...243/016

Grand Junction Aviation Discussion
Issued at 2333 UTC Tuesday, April 23, 2024

.AVIATION /00Z TAFS THROUGH 00Z WEDNESDAY/...
Issued at 519 PM MDT Tue Apr 23 2024
Expect VFR conditions across the region through the TAF period.
Currently widely scattered showers with isolated thunderstorms
are across areas north of the I-70 corridor and more isolated
showers through the central and southern Colorado mountains.
These showers may produce outflow gusts in excess of 35 kts.
Look for the showers to diminish through the evening, ending by
06Z. Winds will generally be light and terrain driven overnight
into the morning, becoming gusty west to southwesterly after
18Z. Isolated showers are possible again over the Uinta
Mountains and Park Range after 18Z.


* * * * * Arizona * * * * *

KPGA 232320Z 2400/2424 23009KT P6SM SKC
     FM240600 19005KT P6SM SKC
     FM242000 22008G14KT P6SM SKC
METAR KPGA 240153Z AUTO 21009G16KT 10SM CLR 27/M07 A2987 RMK AO2 SLP052
       T02721067
METAR KPGA 240053Z AUTO 22009G16KT 10SM CLR 28/M09 A2987 RMK AO2 SLP053
       T02831089
METAR KPGA 232353Z AUTO 23011G20KT 10SM CLR 29/M11 A2987 RMK AO2 SLP054
       T02891106 10300 20250 56015

METAR KRQE 240153Z AUTO 19005KT 10SM CLR 17/M07 A3008 RMK AO2 SLP107
       T01671067
METAR KRQE 240053Z AUTO 24012KT 10SM CLR 21/M08 A3007 RMK AO2 SLP107
       T02111083
METAR KRQE 232353Z AUTO 23010G23KT 10SM CLR 22/M06 A3007 RMK AO2 PK WND
       24028/2332 SLP098 T02221061 10233 20200 56008

Flagstaff Aviation Discussion
Issued at 2341 UTC Tuesday, April 23, 2024

.AVIATION...Wednesday 24/00Z through Thursday 25/00Z...VFR
expected to continue with SSW winds 15-25 kts with gusts 25-35
kts. Winds becoming light and variable after 02Z.
OUTLOOK...Thursday 25/00Z through Saturday 27/00Z...Mainly VFR
conditions expected. Localized MVFR in ISO SHRA/SHSN and ISO TS
09Z/Thu-03Z/Fri. SSW winds 15-25 kts with gusts 25-35 kts,
becoming lighter during the overnight.


* * * * * Utah * * * * *

KSLC 232320Z 2400/2506 32010KT P6SM FEW100 FEW150
     FM240500 16005KT P6SM FEW140
     FM241800 20010KT P6SM FEW140
METAR KSLC 240154Z 31011KT 10SM FEW130 21/03 A2987 RMK AO2 SLP076 VIRGA
        DSNT NW T02110033 $
METAR KSLC 240054Z 34011KT 10SM FEW090 FEW130 23/02 A2988 RMK AO2 SLP079
        T02280017 $
METAR KSLC 232354Z 35008KT 10SM FEW090 FEW130 23/01 A2989 RMK AO2 SLP083
        T02280011 10239 20189 56013 $

KVEL 232320Z 2400/2424 31009KT P6SM SCT110 BKN150
     FM240300 03009KT P6SM SCT100 BKN150
     FM241400 00000KT P6SM FEW090 FEW250
     FM241600 19005KT P6SM FEW090 FEW250
     FM241900 21011KT P6SM FEW090 FEW250
     FM242100 21016G26KT P6SM FEW100 FEW250
METAR KVEL 240153Z AUTO 08007KT 10SM SCT110 21/01 A2990 RMK AO2 SLP070
       T02110006
METAR KVEL 240053Z AUTO 04013G20KT 10SM BKN120 22/02 A2988 RMK AO2
       SLP070 T02170022
METAR KVEL 232353Z AUTO 24007KT 200V270 10SM SCT110 24/M02 A2989 RMK AO2
       SLP065 T02441017 10261 20211 56012

METAR KPUC 240153Z AUTO 30009KT 10SM CLR 21/M08 A2991 RMK AO2 SLP073
       T02061078
METAR KPUC 232353Z AUTO 29015G22KT 10SM FEW120 24/M05 A2992 RMK AO2
       SLP066 T02441050 10261 20211 56010

KCNY 232320Z 2400/2424 23014KT P6SM FEW150 FEW250
     FM240300 21010KT P6SM FEW150 FEW250
     FM241000 20005KT P6SM FEW130 FEW250
     FM241700 22011KT P6SM SKC
     FM242000 21016G24KT P6SM SKC
METAR KCNY 240153Z AUTO 21013KT 10SM CLR 24/M09 A2983 RMK AO2 SLP054
        T02391089
METAR KCNY 240053Z AUTO 20012KT 10SM CLR 27/M08 A2983 RMK AO2 SLP055
        T02671078
METAR KCNY 232353Z AUTO 18014G22KT 10SM CLR 27/M07 A2984 RMK AO2 PK WND
       19029/2325 WSHFT 2307 SLP056 T02721072 10289 20250 56009


Salt Lake City (KMTX) 04/24/24 02:35 UTC
Radar VAD winds      Height      Dir/Spd(kt)
                  25000 FT MSL...025/004
                  22000 FT MSL...243/024
                  20500 FT MSL...241/024
                  20000 FT MSL...240/025
                  19000 FT MSL...240/026
                  18000 FT MSL...240/026
                  17800 FT MSL...241/026
                  17000 FT MSL...239/027
                  16000 FT MSL...239/024
                  15500 FT MSL...240/023
                  15000 FT MSL...239/023
                  14000 FT MSL...238/022
                  13700 FT MSL...237/016
                  13000 FT MSL...243/019
                  12200 FT MSL...247/013
                  12000 FT MSL...241/015
                  11000 FT MSL...260/017
                  10000 FT MSL...256/016
                  10000 FT MSL...107/003
                   9100 FT MSL...033/003
                   9000 FT MSL...263/014
                   8300 FT MSL...063/003
                   8000 FT MSL...274/004
                   7700 FT MSL...048/002
                   7000 FT MSL...052/010
                   6900 FT MSL...044/003
                   6600 FT MSL...347/004

Salt Lake City Aviation Discussion
Issued at 2142 UTC Tuesday, April 23, 2024

.AVIATION...KSLC...VFR conditions will persist for the KSLC
terminal through the period. High pressure will remain in place
resulting in mostly clear skies and breezy north winds
transitioning to a light southerly flow overnight.
.REST OF UTAH AND SOUTHWEST WYOMING...VFR conditions will persist
for the entire airspace through the period. High pressure will
remain in place resulting in mostly clear skies. Breezy southerly
winds across southern Utah will weaken overnight while central and
northern Utah/SW Wyoming maintain light and variable winds.


* * * * * Wyoming * * * * *

KEVW 232320Z 2400/2424 26010G18KT P6SM FEW100 SCT150
     FM240200 30009KT P6SM SCT100
     FM240500 15007KT P6SM SCT150
     FM241500 22010KT P6SM FEW150=
METAR KEVW 240153Z AUTO 34004KT 10SM FEW085 15/M02 A3004 RMK AO2 SLP110
        T01501017
METAR KEVW 240053Z AUTO 30011G18KT 10SM BKN095 18/M02 A3003 RMK AO2
       SLP104 T01781022
METAR KEVW 232353Z AUTO 29012G17KT 10SM SCT075 BKN100 18/M02 A3003 RMK
       AO2 LTG DSNT E SLP102 T01781022 10206 20150 56005

KRKS 232329Z 2400/2424 25011KT P6SM VCSH SCT080 BKN150
     FM240200 26012KT P6SM BKN150
     FM240500 VRB06KT P6SM BKN180
     FM241700 25009KT P6SM BKN150
METAR KRKS 240154Z AUTO 27004KT 10SM FEW044 BKN075 OVC095 12/01 A3003
       RMK AO2 RAB27E37 SLP134 P0000 T01220006
METAR KRKS 240054Z AUTO 26010G19KT 10SM FEW075 SCT100 BKN110 13/01
        A3004 RMK AO2 SLP143 T01330006
METAR KRKS 232354Z AUTO 24014G29KT 10SM BKN070 OVC085 15/00 A3003 RMK
        AO2 PK WND 21029/2346 SLP136 T01500000 10194 20122 55003

KRWL 232320Z 2400/2424 29010KT P6SM VCSH SCT120
     FM240200 36008KT P6SM VCSH SCT100
     FM240700 VRB06KT P6SM SCT100
     FM241700 25012KT P6SM SCT150
METAR KRWL 240153Z AUTO 20013KT 10SM SCT120 14/M03 A3004 RMK AO2 SLP125
       T01391028
METAR KRWL 240053Z AUTO 18007KT 10SM CLR 16/M03 A3003 RMK AO2 SLP128
       T01561033
METAR KRWL 232353Z AUTO 21011KT 10SM CLR 16/M03 A3004 RMK AO2 SLP131
       T01611028 10178 20128 56006

KLAR 232320Z 2400/2424 15012KT P6SM VCSH BKN080
      TEMPO 2400/2402 VRB15G30KT 6SM -SHRA
     FM240500 16015G25KT P6SM VCSH BKN080
     FM241100 19010KT P6SM SCT150
     FM241700 25006KT P6SM SCT150
METAR KLAR 240153Z AUTO 15013KT 10SM OVC070 09/M02 A3009 RMK AO2 SLP148
        T00941022
METAR KLAR 240053Z AUTO 15013KT 10SM OVC085 11/M02 A3008 RMK AO2 SLP147
       T01111017
METAR KLAR 232353Z AUTO 24006KT 10SM FEW085 SCT120 13/M02 A3010 RMK AO2
       SLP150 60000 T01281017 10150 20122 53001

KCYS 232320Z 2400/2424 16011KT P6SM VCSH SCT150
     FM240300 16015G20KT P6SM VCSH BKN060
     FM240800 20010KT P6SM VCSH SCT150
     FM241100 20010G15KT P6SM SCT150
METAR KCYS 240153Z 18012G20KT 10SM BKN100 11/M01 A3011 RMK AO2 SLP168
        T01061011
METAR KCYS 240053Z 18014KT 10SM CLR 12/M02 A3010 RMK AO2 SLP170 T01171022
METAR KCYS 232353Z 17011G20KT 10SM CLR 12/M02 A3011 RMK AO2 SLP174
       T01221022 10144 20106 55001

Riverton (KRIW) 04/24/24 02:39 UTC
Radar VAD winds      Height      Dir/Spd(kt)
                  19000 FT MSL...254/030
                  18000 FT MSL...250/031
                  17000 FT MSL...253/038
                  16000 FT MSL...250/033
                  15000 FT MSL...264/035
                  10000 FT MSL...131/016
                   8100 FT MSL...139/013
                   8000 FT MSL...133/016
                   7300 FT MSL...118/018
                   7000 FT MSL...099/014
                   6700 FT MSL...110/020
                   6200 FT MSL...099/021
                   6000 FT MSL...096/021
                   5900 FT MSL...095/020

Cheyenne (KCYS) 04/24/24 02:39 UTC
Radar VAD winds      Height      Dir/Spd(kt)
                  28000 FT MSL...261/048
                  27000 FT MSL...259/046
                  26900 FT MSL...259/046
                  26000 FT MSL...260/042
                  25000 FT MSL...262/041
                  24000 FT MSL...262/044
                  23400 FT MSL...262/045
                  23000 FT MSL...261/043
                  22000 FT MSL...262/045
                  21000 FT MSL...246/046
                  20000 FT MSL...249/046
                  20000 FT MSL...248/046
                  19000 FT MSL...268/043
                  18000 FT MSL...271/036
                  17400 FT MSL...268/037
                  17000 FT MSL...272/034
                  16000 FT MSL...267/038
                  15100 FT MSL...272/037
                  15000 FT MSL...272/036
                  14000 FT MSL...268/033
                  13200 FT MSL...274/034
                  13000 FT MSL...270/027
                  12000 FT MSL...273/028
                  11700 FT MSL...269/024
                  11000 FT MSL...237/023
                  10500 FT MSL...251/020
                  10000 FT MSL...198/024
                   9500 FT MSL...190/031
                   9000 FT MSL...191/028
                   8600 FT MSL...171/037
                   8000 FT MSL...164/040
                   7900 FT MSL...164/042
                   7400 FT MSL...162/044
                   7000 FT MSL...161/039
                   6700 FT MSL...162/033

Riverton Aviation Discussion
Issued at 2337 UTC Tuesday, April 23, 2024

.AVIATION /00Z TAFS THROUGH 00Z THURSDAY/...
Issued at 534 PM MDT Tue Apr 23 2024
VFR conditions through the period with mainly light winds. A weak
shortwave within the westerly flow will bring some isolated showers
to southwestern Wyoming Tuesday afternoon. KRKS is the only station
that could see potential impacts with showers, but they still look
to stay to the south. Only going with VCSH at this time. As the
activity moves to the it will bring increased high clouds will
across the area.
Please see the Aviation Weather Center and/or CWSU ZDV and ZLC for
the latest information on icing and turbulence forecasts.

Cheyenne Aviation Discussion
Issued at 2321 UTC Tuesday, April 23, 2024

.AVIATION /00Z TAFS THROUGH 00Z WEDNESDAY/...
Issued at 517 PM MDT Tue Apr 23 2024
VFR conditions expected through the 00Z TAF period. Primary
aviation concern will be showers developing along I-80 this
evening and potentially impacting KCYS, KLAR, and KRWL through
the evening hours. A second band of showers is expected to
develop in western Nebraska. Included VCSH for most western
Nebraska sites and all Wyoming sites. Winds expected to increase
tomorrow morning through the remaining TAF period.


* * * * * Nebraska * * * * *

METAR KIBM 240235Z AUTO 13004KT 10SM CLR 08/M02 A3013 RMK AO2
       T00791025
METAR KIBM 240215Z AUTO 14005KT 10SM SCT070 09/M03 A3012 RMK AO2
       T00891032
METAR KIBM 240155Z AUTO 14005KT 10SM BKN070 11/M03 A3011 RMK AO2
       T01061031

KSNY 232320Z 2400/2424 10007KT P6SM SCT150
     FM240700 16010KT P6SM VCSH BKN100
     FM241500 18015G25KT P6SM FEW150
METAR KSNY 240153Z AUTO 11006KT 10SM BKN080 12/M03 A3010 RMK AO2 SLP176
       T01221028
METAR KSNY 240053Z AUTO 10007KT 10SM CLR 14/M04 A3009 RMK AO2 SLP181
       T01391039
METAR KSNY 232353Z AUTO 08008KT 10SM FEW110 17/M06 A3010 RMK AO2 SLP181
       T01671061 10178 20156 53002

METAR KOGA 240235Z AUTO 09005KT 10SM CLR 12/M02 A3013 RMK AO2 T01151017
       TSNO
METAR KOGA 240215Z AUTO 07006KT 10SM CLR 12/M03 A3012 RMK AO2 T01151028
       TSNO
METAR KOGA 240155Z AUTO 05007KT 10SM CLR 12/M03 A3012 RMK AO2 T01241027
       TSNO

METAR KIML 240153Z AUTO 06008KT 10SM CLR 13/M04 A3011 RMK AO2 SLP191
       T01331044
METAR KIML 240053Z AUTO 05010KT 10SM CLR 17/M05 A3009 RMK AO2 SLP186
       T01671050
METAR KIML 232353Z AUTO 02008KT 10SM CLR 19/M06 A3010 RMK AO2 SLP188
       T01941056 10217 20189 53005

KMCK 232320Z 2400/2424 03010KT P6SM FEW250
     FM241300 12008KT P6SM BKN250
     FM242100 17019KT P6SM SCT100
METAR KMCK 240153Z AUTO 04009KT 10SM 16/M03 A3010 RMK AO2 SLP184
       T01611033 $
METAR KMCK 240053Z AUTO 04011KT 10SM CLR 18/M03 A3009 RMK AO2 SLP180
       T01831033
METAR KMCK 232353Z AUTO 02005KT 10SM CLR 21/M03 A3008 RMK AO2 SLP179
       T02061033 10228 20200 53006

North Platte (KLNX) 04/24/24 02:36 UTC
Radar VAD winds      Height      Dir/Spd(kt)
                   7000 FT MSL...160/022
                   6000 FT MSL...142/019
                   5500 FT MSL...146/021
                   5000 FT MSL...139/020
                   4700 FT MSL...138/021
                   4100 FT MSL...130/018
                   4000 FT MSL...129/017
                   3600 FT MSL...066/012
                   3400 FT MSL...065/012

North Platte Aviation Discussion
Issued at 0009 UTC Wednesday, April 24, 2024

.AVIATION /00Z TAFS THROUGH 00Z THURSDAY/...
Issued at 706 PM CDT Tue Apr 23 2024
VFR conditions will prevail across all of western and north
central Nebraska the next 24 hrs. Expect bouts of mid and high
level cloudiness otherwise skies will be clear. Winds will
become gusty from the south during the afternoon hours
Wednesday.


* * * * * Kansas * * * * *

KGLD 232320Z 2400/2424 08008KT P6SM FEW250
     FM241500 17017G25KT P6SM FEW250
     FM242300 16021G29KT P6SM FEW250
METAR KGLD 240153Z AUTO 11004KT 10SM SCT110 13/M02 A3011 RMK AO2 SLP182
       T01331017
METAR KGLD 240053Z AUTO 07005KT 10SM CLR 17/M04 A3010 RMK AO2 SLP177
       T01671044
METAR KGLD 232353Z AUTO 05007KT 10SM CLR 19/M06 A3007 RMK AO2 SLP167
       T01941061 10206 20172 55003

KGCK 232320Z 2400/2424 08009KT P6SM SKC
     FM241400 15014KT P6SM BKN060
     FM241900 16015KT P6SM BKN025
METAR KGCK 240154Z 06006KT 10SM CLR 16/M03 A3008 RMK AO2 SLP171
       T01561033
METAR KGCK 240054Z 07009KT 10SM CLR 18/M04 A3005 RMK AO2 SLP161
       T01831039
METAR KGCK 232354Z 08014KT 10SM CLR 21/M07 A3004 RMK AO2 SLP157
       T02111067 10233 20206 56000

METAR KLBL 240156Z AUTO 08009KT 10SM CLR 18/M01 A3005 RMK AO2 SLP161
       T01831006
METAR KLBL 240056Z AUTO 09010KT 10SM CLR 21/00 A3004 RMK AO2 SLP157
       T02060000
METAR KLBL 232356Z AUTO 09011KT 10SM CLR 23/01 A3004 RMK AO2 SLP153
       T02280006 10239 20217 53000

METAR KEHA 240235Z AUTO 11008KT 10SM CLR 15/01 A3012 RMK AO2
       T01450009
METAR KEHA 240215Z AUTO 12008KT 10SM CLR 14/01 A3011 RMK AO2
       T01410010
METAR KEHA 240155Z AUTO 11008KT 10SM CLR 15/01 A3010 RMK AO2
       T01490010

Goodland (KGLD) 04/24/24 02:39 UTC
Radar VAD winds      Height      Dir/Spd(kt)
                  26000 FT MSL...311/045
                  24000 FT MSL...266/048
                  22000 FT MSL...283/043
                  21000 FT MSL...285/049
                  20000 FT MSL...283/041
                  19000 FT MSL...274/040
                  18000 FT MSL...274/036
                  17500 FT MSL...274/036
                  17000 FT MSL...272/033
                  16000 FT MSL...278/031
                  15000 FT MSL...279/028
                  14900 FT MSL...279/028
                  14000 FT MSL...282/025
                  13000 FT MSL...294/023
                  12700 FT MSL...302/031
                  12000 FT MSL...302/026
                  11000 FT MSL...287/016
                  10700 FT MSL...280/015
                  10000 FT MSL...257/015
                   9300 FT MSL...196/016
                   8000 FT MSL...141/027
                   7000 FT MSL...137/023
                   7000 FT MSL...148/023
                   6200 FT MSL...133/029
                   6000 FT MSL...131/028
                   5400 FT MSL...124/030
                   5000 FT MSL...123/029
                   4700 FT MSL...120/030
                   4300 FT MSL...107/025
                   4000 FT MSL...103/024
                   4000 FT MSL...101/023

Dodge City (KDDC) 04/24/24 02:33 UTC
Radar VAD winds      Height      Dir/Spd(kt)
                  20000 FT MSL...291/034
                  19000 FT MSL...288/032
                  18000 FT MSL...282/032
                  17000 FT MSL...282/029
                  16000 FT MSL...281/022
                  15000 FT MSL...285/021
                  11700 FT MSL...004/003
                  10000 FT MSL...127/004
                   9800 FT MSL...114/003
                   9000 FT MSL...147/019
                   8100 FT MSL...137/014
                   8000 FT MSL...135/015
                   7100 FT MSL...127/016
                   7000 FT MSL...127/016
                   6000 FT MSL...111/020
                   6000 FT MSL...111/020
                   5100 FT MSL...100/022
                   5000 FT MSL...097/022
                   4300 FT MSL...091/023
                   4000 FT MSL...085/023
                   3700 FT MSL...085/023
                   3200 FT MSL...072/022
                   3000 FT MSL...068/019
                   3000 FT MSL...068/019

Goodland Aviation Discussion
Issued at 2353 UTC Tuesday, April 23, 2024

.AVIATION /00Z TAFS THROUGH 00Z THURSDAY/...
Issued at 527 PM MDT Tue Apr 23 2024
VFR conditions are expected over the KGLD and KMCK terminals
through the 00Z TAF period. Light rain showers, possibly
remaining as virga, will move east across the terminals this
evening. Winds over KGLD will be increasing after sunrise
Wednesday with southerly winds gusting up to 30 kts from 17Z to
00Z.

Dodge City Aviation Discussion
Issued at 2334 UTC Tuesday, April 23, 2024

.AVIATION /00Z TAFS THROUGH 00Z THURSDAY/...
Issued at 631 PM CDT Tue Apr 23 2024
Northeast winds will continue to decrease to less than 10 knots
with winds eventually becoming light easterly through the night.
Sky cover will remain mostly clear, but by daybreak Wednesday,
we will see low level moisture return north and subsequent
stratus cloud development through the day. For this TAF cycle,
we will carry MVFR stratus at GCK and LBL with lower probability
of MVFR at DDC (around 30% chance). The surface wind will
continue to veer to the southeast and increase to around 12 to
15 knots.


* * * * * Texas/Oklahoma * * * * *

KGUY 232328Z 2400/2424 07011KT P6SM SCT300
     FM240600 08006KT P6SM BKN300
     FM241500 14011KT P6SM BKN040=
METAR KGUY 240153Z AUTO 08007KT 10SM CLR 18/02 A3004 RMK AO2 SLP143
       T01780017
METAR KGUY 240053Z AUTO 08010G20KT 10SM CLR 21/01 A3001 RMK AO2 SLP132
       T02060011
METAR KGUY 232353Z AUTO 07012KT 10SM CLR 22/01 A3002 RMK AO2 SLP135
       T02220011 10244 20211 55000

KDHT 232328Z 2400/2424 08012KT P6SM SCT300
     FM241000 08009KT P6SM BKN040
     FM241200 10010KT P6SM OVC020
     FM241700 16011KT P6SM BKN040
METAR KDHT 240153Z AUTO 07009KT 10SM CLR 16/03 A3007 RMK AO2 SLP144
        T01610028
METAR KDHT 240053Z AUTO 08015KT 10SM CLR 19/03 A3004 RMK AO2 SLP136
        T01940028
METAR KDHT 232353Z AUTO 09015G22KT 10SM CLR 22/03 A3004 RMK AO2 PK WND
       09028/2302 SLP133 T02170028 10239 20211 55004

Amarillo (KAMA) 04/24/24 02:38 UTC
Radar VAD winds      Height      Dir/Spd(kt)
                  14000 FT MSL...262/035
                  13000 FT MSL...264/034
                  12700 FT MSL...263/033
                  12000 FT MSL...260/033
                  11000 FT MSL...246/030
                  10800 FT MSL...244/029
                  10000 FT MSL...232/025
                   9300 FT MSL...183/015
                   9000 FT MSL...172/017
                   8000 FT MSL...144/033
                   8000 FT MSL...145/029
                   7100 FT MSL...129/034
                   7000 FT MSL...129/034
                   6200 FT MSL...115/036
                   6000 FT MSL...114/036
                   5400 FT MSL...109/037
                   5000 FT MSL...105/036
                   4800 FT MSL...106/035
                   4300 FT MSL...097/031
                   4000 FT MSL...092/025
                   4000 FT MSL...088/023

Amarillo Aviation Discussion
Issued at 2347 UTC Tuesday, April 23, 2024

.AVIATION...
(00Z TAFS)
Issued at 635 PM CDT Tue Apr 23 2024
For the 00Z TAFs, expect low level moisture to increase tonight
across the area courtesy of low level easterly upslope flow. This
translates to the development of MVFR cigs at KDHT and KAMA towards
sunrise Wednesday. These MVFR cigs are forecast to persist through
Wednesday morning before lifting to the VFR category Wednesday
afternoon. KGUY should remain in the VFR category through late
Wednesday afternoon at this time. Some patchy drizzle may develop
Wednesday morning, but low confidence exists as to if, where, and
when any drizzle might develop so have opted to omit from this
forecast cycle.
02


* * * * * New Mexico * * * * *

KFMN 232329Z 2400/2424 23012G18KT P6SM FEW120
     FM240100 VRB06KT P6SM SKC
     FM241900 23011KT P6SM SKC
METAR KFMN 240153Z 26009KT 10SM CLR 23/M09 A2996 RMK AO2 SLP100 T02331094
METAR KFMN 240053Z 25011KT 10SM CLR 26/M09 A2995 RMK AO2 SLP102 T02611094
METAR KFMN 232353Z VRB03G16KT 10SM CLR 26/M09 A2996 RMK AO2 SLP102
       T02611094 10278 20233 56010

METAR KSKX 240156Z AUTO 16015G22KT 10SM BKN110 19/M02 A3012 RMK AO2 PK
       WND 17028/0137 SLP140 T01891017
METAR KSKX 240056Z AUTO 18013KT 10SM FEW120 21/M06 A3009 RMK AO2 SLP148
       T02061061
METAR KSKX 232356Z AUTO 21007KT 10SM FEW120 22/M07 A3009 RMK AO2 SLP145
       T02221072 10244 20211 55007

KLVS 232329Z 2400/2424 12014G22KT P6SM SCT120
     FM240300 08011KT P6SM SCT120
     FM241400 12011KT P6SM SCT030
     FM241700 16009KT P6SM FEW020
     FM241900 19011G18KT P6SM SKC
     FM242100 20015G25KT P6SM SKC
METAR KLVS 240153Z AUTO 10009KT 10SM CLR 13/01 A3016 RMK AO2 SLP136
        T01330006
METAR KLVS 240053Z AUTO 12015G23KT 10SM CLR 17/01 A3012 RMK AO2 PK WND
       12027/0008 SLP119 T01720006
METAR KLVS 232353Z AUTO 11019G26KT 10SM SCT120 21/01 A3010 RMK AO2 PK
       WND 13031/2316 SLP101 T02060006 10261 20194 53003

METAR KRTN 240153Z AUTO 17009KT 10SM FEW100 14/M02 A3013 RMK AO2 SLP148
       T01391017
METAR KRTN 240053Z AUTO 14013G18KT 10SM SCT085 BKN120 17/M01 A3010 RMK
       AO2 SLP136 T01721011
METAR KRTN 232353Z AUTO 09017G24KT 10SM SCT090 BKN110 19/M01 A3008 RMK
       AO2 PK WND 07027/2311 SLP130 T01941011 10239 20189 53008

METAR KCAO 240155Z AUTO 09008KT 10SM CLR 13/00 A3011 RMK AO2 SLP147
       T01330000 $
METAR KCAO 240055Z AUTO 09012KT 10SM CLR 18/M01 A3009 RMK AO2 SLP138
       T01781006 $
METAR KCAO 232355Z AUTO 09014G23KT 10SM CLR 19/M01 A3008 RMK AO2 SLP135
       T01941006 10211 20183 55003 $

Albuquerque (KABX) 04/24/24 02:34 UTC
Radar VAD winds      Height      Dir/Spd(kt)
                  24000 FT MSL...257/034
                  22000 FT MSL...268/023
                  20000 FT MSL...256/018
                  19000 FT MSL...258/014
                  18000 FT MSL...251/027
                  17100 FT MSL...277/012
                  17000 FT MSL...274/015
                  16000 FT MSL...262/007
                  15000 FT MSL...218/014
                  14800 FT MSL...262/013
                  14000 FT MSL...242/024
                  13000 FT MSL...227/021
                  13000 FT MSL...226/022
                  12000 FT MSL...214/020
                  11400 FT MSL...212/022
                  11000 FT MSL...204/025
                  10300 FT MSL...199/023
                  10000 FT MSL...196/025
                   9200 FT MSL...185/025
                   9000 FT MSL...188/025
                   8400 FT MSL...177/025
                   8000 FT MSL...176/027
                   7600 FT MSL...174/025
                   7000 FT MSL...168/025
                   7000 FT MSL...169/026
                   6500 FT MSL...162/023
                   6300 FT MSL...159/021

Albuquerque Aviation Discussion
Issued at 2337 UTC Tuesday, April 23, 2024

.AVIATION...
(00Z TAFS)
Issued at 529 PM MDT Tue Apr 23 2024
A cold front continues to slowly progress south and westward
through eastern NM this afternoon, bringing a northeasterly to
easterly wind shift with it. Gusty easterly winds of 15 to 25kts
are being observed behind the front from KRTN to KCAO and KTCC.
Meanwhile gusty southwesterly winds remain ahead of the front
through central and western NM. Most areas are skc with the
exception of sct-bkn coverage along and near the frontal boundary
generally 120 to 140. This frontal boundary will progress through
the gaps of the Sandia/Manzano Mountains into KSAF this evening.
Have bumped up the wind potential there overnight as a result.
Hi-Res model guidance supports conceptual thinking that this
shallow airmass behind the front will ooze around the northern
edge of the Sandia/Manzano Mountains and squeak through the
Tijeras Canyon. Wind directions at KABQ will likely be tricky
overnight with a northerly wind coming down from Placitas
competing against an easterly wind through Tijeras Canyon. The
saving grace here will be wind speeds are not expected to be too
strong at KABQ. A similar debacle with wind directions will be
present at KROW overnight with the frontal passage there weakening
and losing its punch. Otherwise, high moisture and upslope flow
will allow for some low clouds and fog potential overnight along
the east slopes of the central mountain chain, and have placed a
bkn015 at KLVS as a result.

* * * * * Winds and Temperatures Aloft Forecasts * * * * *

DATA BASED ON 240000Z
VALID 240600Z   FOR USE 0500-0900Z. TEMPS NEG ABV 24000
FT  3000    6000   9000    12000   18000   24000  30000  34000  39000
SLC      9900    1707+10 2118+02 2422-16 2429-27 254343 256550 257058
BCE                      2322+01 2322-13 2431-25 245140 246149 246759
LND              9900+05 2310-01 2730-17 2738-29 274943 265652 266859
RKS              9900    2816+00 2532-16 2537-28 264443 266351 267059
GJT              2417+12 2422+04 2226-15 2536-25 265241 266449 267459
FMN              2522+13 2418+05 2127-13 2533-25 265239 265348 266358
ABQ              2507+14 2310+06 2215-13 2641-24 274938 265248 275457
MBW              2421    2615-01 2735-16 2545-28 275243 276552 277459
DEN              1923+05 2321+00 2639-15 2739-27 285741 287250 288359
PUB              1723+06 2223+00 2644-13 2733-25 285340 286049 287358
ALS                      2418+05 2436-14 2736-25 275340 275849 277058
TCC      1127    1727+10 2230+06 2626-13 2932-23 284438 285148 285457
BFF      1627    1926+02 2423-03 2837-16 2847-29 285743 286252 287259
GLD      1516    2215+02 2620+00 2833-15 2746-27 295943 297851 298160
GCK      1313+10 2010+04 2621+02 2735-14 2943-27 296141 297050 307559
GAG      1016+11 2209+11 2723+04 2834-14 2940-27 305140 306049 307058
AMA      1326    1923+12 2421+05 2934-14 2931-24 294438 295548 296056
---------------------------------------------------------------------

DATA BASED ON 240000Z
VALID 241200Z   FOR USE 0900-1800Z. TEMPS NEG ABV 24000
FT  3000    6000   9000    12000   18000   24000  30000  34000  39000
SLC      1905    2216+09 2317+01 2221-16 2424-28 243544 245253 255457
BCE                      2324-01 2334-12 2434-26 245441 246451 246859
LND              2512+06 2616-02 2522-16 2532-28 264645 266053 266159
RKS              2413    2518+00 2426-16 2627-28 254244 256252 266259
GJT              2316+10 2419+02 2324-15 2439-26 255541 256751 257159
FMN              2614+09 2314+01 2332-12 2540-25 255640 255950 266858
ABQ              3016+10 2415+03 2532-10 2645-23 254639 264949 275257
MBW              2717    2817+00 2833-16 2738-28 274943 276951 277159
DEN              2810+07 2825+03 2625-15 2638-26 275242 276750 277260
PUB              2310+07 2619+03 2641-14 2734-26 274940 275750 276660
ALS                      2620+03 2439-13 2636-25 264739 264849 265558
TCC      1115    2616+12 2525+06 2424-13 2738-23 274339 274749 275159
BFF      1939    2423+05 2612-01 2934-16 2747-29 275444 287551 288259
GLD      1724    2122+03 2823+00 2736-16 2743-27 286142 287449 297859
GCK      1420+09 2315+05 2633+02 2843-15 2739-26 285740 286648 287459
GAG      0921+08 2521+08 2629+02 2932-13 2729-24 273940 285350 286259
AMA      1223    2421+11 2422+06 2617-13 2835-24 284840 285449 285458
---------------------------------------------------------------------

DATA BASED ON 240000Z
VALID 250000Z   FOR USE 1800-0500Z. TEMPS NEG ABV 24000
FT  3000    6000   9000    12000   18000   24000  30000  34000  39000
SLC      9900    2015+09 2119+00 2225-15 2234-27 224444 235752 235857
BCE                      2117+01 2131-15 2144-28 227442 228150 227555
LND              9900+10 2214+02 2327-17 2529-27 253744 255454 256559
RKS              2310    2210+02 2421-16 2435-27 254943 246653 257059
GJT              2108+11 2115+03 2327-14 2440-26 246542 247351 247658
FMN              2112+13 2014+04 2331-12 2446-24 247140 247250 247359
ABQ              1819+13 2120+05 2537-11 2642-23 256638 247449 257458
MBW              2512    2512+02 2421-16 2631-27 264744 267053 267960
DEN              1808+12 2008+03 2621-14 2640-27 276542 277451 267959
PUB              1713+12 2218+04 2733-13 2743-24 266240 266750 267359
ALS                      2219+05 2632-12 2646-25 256840 257050 257359
TCC      1312    2220+12 2522+04 2834-09 2734-23 266838 267350 267560
BFF      1821    2017+07 2711+01 2829-15 2645-27 275844 277653 278360
GLD      1730    2222+08 2615+03 2931-13 2846-26 286742 287551 278260
GCK      1627+08 2020+07 2413+04 2832-12 2847-26 286741 287051 288060
GAG      1926+12 2421+12 2539+05 2833-11 2847-25 296340 286850 287660
AMA      1817    2426+13 2336+05 2730-10 2739-24 287039 288249 288160
---------------------------------------------------------------------

This product is updated automatically at approximately 10, 30 and 50
minutes after each hour, 24 hours per day, 7 days per week.  It may
become unavailable at times due to system outages without prior notice.
Users are advised to check the time at the top of the product to ensure
that it is current.  Furthermore, content and format of the product are
subject to change without prior notice.

Comments and suggestions are welcome and should be directed to one of
the addresses or phone numbers shown at the bottom of this page.  In
order to expedite a response to comments or suggestions, be sure to
mention your interest in the hot-air balloon forecast.


USA.gov is the U.S. government's official web portal to all federal, state and local government web resources and services.